Terminal Aerodrome Forecast
Issued by NWS Memphis, TN

Home | Current Version | Previous Version | Text Only | Print | Product List | Glossary On
Versions: 1 2 3 4 5 6 7 8 9 10 11 12 13 14 15 16 17 18 19 20 21 22 23 24 25 26 27 28 29 30 31 32 33 34 35 36 37 38 39
426
FTUS44 KMEG 302052 AAB
TAFMEM
TAF AMD
KMEM 302052Z 3021/3118 29005KT P6SM SCT035
     FM302200 24005KT P6SM VCTS FEW040CB SCT050
     FM310100 VRB02KT P6SM BKN250
     FM311400 22006KT P6SM SCT035 BKN200=

USA.gov is the U.S. government's official web portal to all federal, state and local government web resources and services.